sensor_id;sensor_type;location;lat;lon;timestamp;P1;durP1;ratioP1;P2;durP2;ratioP2
49946;SDS011;35839;48.662;13.300;2023-05-14T05:08:00;135.83;;;72.10;;
49946;SDS011;35839;48.662;13.300;2023-05-14T05:10:25;83.53;;;48.87;;
49946;SDS011;35839;48.662;13.300;2023-05-14T05:12:51;123.10;;;68.40;;
49946;SDS011;35839;48.662;13.300;2023-05-14T05:15:16;100.70;;;57.73;;
49946;SDS011;35839;48.662;13.300;2023-05-14T05:17:41;88.57;;;53.10;;
49946;SDS011;35839;48.662;13.300;2023-05-14T05:20:07;63.70;;;37.67;;
49946;SDS011;35839;48.662;13.300;2023-05-14T05:22:33;60.77;;;35.07;;
49946;SDS011;35839;48.662;13.300;2023-05-14T05:25:00;57.70;;;32.07;;
49946;SDS011;35839;48.662;13.300;2023-05-14T05:27:25;15.40;;;9.93;;
49946;SDS011;35839;48.662;13.300;2023-05-14T05:29:50;15.93;;;8.40;;
49946;SDS011;35839;48.662;13.300;2023-05-14T05:32:16;9.60;;;7.40;;
49946;SDS011;35839;48.662;13.300;2023-05-14T05:34:41;8.80;;;6.00;;
49946;SDS011;35839;48.662;13.300;2023-05-14T05:37:06;7.57;;;5.75;;
49946;SDS011;35839;48.662;13.300;2023-05-14T05:39:33;7.20;;;5.95;;
49946;SDS011;35839;48.662;13.300;2023-05-14T05:41:59;7.07;;;5.22;;
49946;SDS011;35839;48.662;13.300;2023-05-14T05:44:25;6.70;;;5.20;;
49946;SDS011;35839;48.662;13.300;2023-05-14T05:46:51;6.47;;;5.05;;
49946;SDS011;35839;48.662;13.300;2023-05-14T05:49:16;9.40;;;5.55;;
49946;SDS011;35839;48.662;13.300;2023-05-14T05:51:41;7.20;;;5.50;;
49946;SDS011;35839;48.662;13.300;2023-05-14T05:54:06;9.20;;;4.82;;
49946;SDS011;35839;48.662;13.300;2023-05-14T05:56:31;6.82;;;4.80;;
49946;SDS011;35839;48.662;13.300;2023-05-14T05:58:57;5.93;;;4.40;;
49946;SDS011;35839;48.662;13.300;2023-05-14T06:01:22;6.70;;;4.63;;
49946;SDS011;35839;48.662;13.300;2023-05-14T06:03:47;7.20;;;4.78;;
49946;SDS011;35839;48.662;13.300;2023-05-14T06:06:13;5.82;;;4.72;;
49946;SDS011;35839;48.662;13.300;2023-05-14T06:08:39;5.78;;;4.32;;
49946;SDS011;35839;48.662;13.300;2023-05-14T06:11:04;5.65;;;4.90;;
49946;SDS011;35839;48.662;13.300;2023-05-14T06:13:30;6.05;;;4.22;;
49946;SDS011;35839;48.662;13.300;2023-05-14T06:15:55;6.20;;;4.75;;
49946;SDS011;35839;48.662;13.300;2023-05-14T06:18:20;8.60;;;4.78;;
49946;SDS011;35839;48.662;13.300;2023-05-14T06:20:45;8.27;;;4.57;;
49946;SDS011;35839;48.662;13.300;2023-05-14T06:23:11;5.97;;;4.35;;
49946;SDS011;35839;48.662;13.300;2023-05-14T06:25:36;5.18;;;4.20;;
49946;SDS011;35839;48.662;13.300;2023-05-14T06:28:01;4.90;;;4.13;;
49946;SDS011;35839;48.662;13.300;2023-05-14T06:30:26;7.57;;;4.38;;
49946;SDS011;35839;48.662;13.300;2023-05-14T06:32:52;7.35;;;5.10;;
49946;SDS011;35839;48.662;13.300;2023-05-14T06:35:17;7.72;;;5.00;;
49946;SDS011;35839;48.662;13.300;2023-05-14T06:37:43;5.50;;;4.60;;
49946;SDS011;35839;48.662;13.300;2023-05-14T06:40:09;7.18;;;4.40;;
49946;SDS011;35839;48.662;13.300;2023-05-14T06:42:34;6.03;;;4.65;;
49946;SDS011;35839;48.662;13.300;2023-05-14T06:45:00;6.90;;;4.75;;
49946;SDS011;35839;48.662;13.300;2023-05-14T06:47:25;5.72;;;3.97;;
49946;SDS011;35839;48.662;13.300;2023-05-14T06:49:50;6.72;;;4.43;;
49946;SDS011;35839;48.662;13.300;2023-05-14T06:52:15;12.15;;;4.88;;
49946;SDS011;35839;48.662;13.300;2023-05-14T06:54:41;6.05;;;4.43;;
49946;SDS011;35839;48.662;13.300;2023-05-14T06:57:06;5.28;;;4.70;;
49946;SDS011;35839;48.662;13.300;2023-05-14T06:59:31;6.43;;;5.32;;
49946;SDS011;35839;48.662;13.300;2023-05-14T07:01:57;6.90;;;4.68;;
49946;SDS011;35839;48.662;13.300;2023-05-14T07:04:22;5.97;;;4.70;;
49946;SDS011;35839;48.662;13.300;2023-05-14T07:06:47;6.18;;;4.82;;
49946;SDS011;35839;48.662;13.300;2023-05-14T07:09:13;6.15;;;5.18;;
49946;SDS011;35839;48.662;13.300;2023-05-14T07:11:40;6.22;;;4.97;;
49946;SDS011;35839;48.662;13.300;2023-05-14T07:14:05;6.80;;;4.97;;
49946;SDS011;35839;48.662;13.300;2023-05-14T07:16:30;5.05;;;4.32;;
49946;SDS011;35839;48.662;13.300;2023-05-14T07:18:56;7.00;;;5.57;;
49946;SDS011;35839;48.662;13.300;2023-05-14T07:21:21;8.07;;;5.13;;
49946;SDS011;35839;48.662;13.300;2023-05-14T07:23:46;7.35;;;5.20;;
49946;SDS011;35839;48.662;13.300;2023-05-14T07:26:11;6.55;;;5.03;;
49946;SDS011;35839;48.662;13.300;2023-05-14T07:28:37;5.43;;;4.38;;
49946;SDS011;35839;48.662;13.300;2023-05-14T07:31:02;5.78;;;4.82;;
49946;SDS011;35839;48.662;13.300;2023-05-14T07:33:33;6.43;;;4.72;;
49946;SDS011;35839;48.662;13.300;2023-05-14T07:36:00;6.45;;;5.22;;
49946;SDS011;35839;48.662;13.300;2023-05-14T07:38:25;5.45;;;4.63;;
49946;SDS011;35839;48.662;13.300;2023-05-14T07:40:50;6.03;;;4.45;;
49946;SDS011;35839;48.662;13.300;2023-05-14T07:43:16;5.95;;;5.10;;
49946;SDS011;35839;48.662;13.300;2023-05-14T07:45:41;5.72;;;4.53;;
49946;SDS011;35839;48.662;13.300;2023-05-14T07:48:06;6.97;;;5.10;;
49946;SDS011;35839;48.662;13.300;2023-05-14T07:50:32;5.65;;;4.40;;
49946;SDS011;35839;48.662;13.300;2023-05-14T07:52:57;10.07;;;4.90;;
49946;SDS011;35839;48.662;13.300;2023-05-14T07:55:22;8.68;;;5.00;;
49946;SDS011;35839;48.662;13.300;2023-05-14T07:57:48;5.68;;;4.78;;
49946;SDS011;35839;48.662;13.300;2023-05-14T08:00:13;5.60;;;4.55;;
49946;SDS011;35839;48.662;13.300;2023-05-14T08:02:39;9.77;;;7.88;;
49946;SDS011;35839;48.662;13.300;2023-05-14T08:05:06;6.40;;;5.57;;
49946;SDS011;35839;48.662;13.300;2023-05-14T08:07:31;5.30;;;4.30;;
49946;SDS011;35839;48.662;13.300;2023-05-14T08:09:57;7.15;;;4.82;;
49946;SDS011;35839;48.662;13.300;2023-05-14T08:12:23;5.20;;;4.40;;
49946;SDS011;35839;48.662;13.300;2023-05-14T08:14:48;5.43;;;4.05;;
49946;SDS011;35839;48.662;13.300;2023-05-14T08:17:13;6.15;;;5.18;;
49946;SDS011;35839;48.662;13.300;2023-05-14T08:19:39;5.03;;;4.25;;
49946;SDS011;35839;48.662;13.300;2023-05-14T08:22:04;5.88;;;4.55;;
49946;SDS011;35839;48.662;13.300;2023-05-14T08:24:30;5.45;;;4.72;;
49946;SDS011;35839;48.662;13.300;2023-05-14T08:26:55;7.43;;;5.30;;
49946;SDS011;35839;48.662;13.300;2023-05-14T08:29:20;4.72;;;4.07;;
49946;SDS011;35839;48.662;13.300;2023-05-14T08:31:47;5.53;;;4.90;;
49946;SDS011;35839;48.662;13.300;2023-05-14T08:34:14;7.10;;;4.13;;
49946;SDS011;35839;48.662;13.300;2023-05-14T08:36:41;6.53;;;4.57;;
49946;SDS011;35839;48.662;13.300;2023-05-14T08:39:06;5.68;;;4.43;;
49946;SDS011;35839;48.662;13.300;2023-05-14T08:41:33;5.20;;;4.13;;
49946;SDS011;35839;48.662;13.300;2023-05-14T08:44:11;6.43;;;4.78;;
49946;SDS011;35839;48.662;13.300;2023-05-14T08:46:38;7.88;;;4.60;;
49946;SDS011;35839;48.662;13.300;2023-05-14T08:49:09;4.43;;;4.03;;
49946;SDS011;35839;48.662;13.300;2023-05-14T08:51:45;9.68;;;4.50;;
49946;SDS011;35839;48.662;13.300;2023-05-14T08:54:13;6.03;;;4.47;;
49946;SDS011;35839;48.662;13.300;2023-05-14T08:56:41;5.40;;;4.60;;
49946;SDS011;35839;48.662;13.300;2023-05-14T08:59:08;6.90;;;4.55;;
49946;SDS011;35839;48.662;13.300;2023-05-14T09:01:35;4.80;;;4.30;;
49946;SDS011;35839;48.662;13.300;2023-05-14T09:04:02;6.13;;;3.70;;
49946;SDS011;35839;48.662;13.300;2023-05-14T09:06:32;6.32;;;3.67;;
49946;SDS011;35839;48.662;13.300;2023-05-14T09:09:01;5.10;;;4.20;;
49946;SDS011;35839;48.662;13.300;2023-05-14T09:11:27;4.78;;;4.00;;
49946;SDS011;35839;48.662;13.300;2023-05-14T09:13:53;5.28;;;3.75;;
49946;SDS011;35839;48.662;13.300;2023-05-14T09:16:18;10.18;;;3.92;;
49946;SDS011;35839;48.662;13.300;2023-05-14T09:18:45;6.13;;;4.18;;
49946;SDS011;35839;48.662;13.300;2023-05-14T09:21:12;5.05;;;4.20;;
49946;SDS011;35839;48.662;13.300;2023-05-14T09:23:40;4.20;;;3.80;;
49946;SDS011;35839;48.662;13.300;2023-05-14T09:26:07;4.53;;;3.78;;
49946;SDS011;35839;48.662;13.300;2023-05-14T09:28:32;6.50;;;3.58;;
49946;SDS011;35839;48.662;13.300;2023-05-14T09:30:58;4.18;;;3.42;;
49946;SDS011;35839;48.662;13.300;2023-05-14T09:33:27;5.22;;;3.47;;
49946;SDS011;35839;48.662;13.300;2023-05-14T09:35:59;6.80;;;3.92;;
49946;SDS011;35839;48.662;13.300;2023-05-14T09:38:29;5.18;;;3.97;;
49946;SDS011;35839;48.662;13.300;2023-05-14T09:40:56;6.22;;;4.07;;
49946;SDS011;35839;48.662;13.300;2023-05-14T09:43:21;4.28;;;3.70;;
49946;SDS011;35839;48.662;13.300;2023-05-14T09:45:47;4.22;;;3.63;;
49946;SDS011;35839;48.662;13.300;2023-05-14T09:48:12;4.75;;;3.80;;
49946;SDS011;35839;48.662;13.300;2023-05-14T09:50:41;5.22;;;3.72;;
49946;SDS011;35839;48.662;13.300;2023-05-14T09:53:07;4.00;;;3.38;;
49946;SDS011;35839;48.662;13.300;2023-05-14T09:55:34;4.13;;;3.30;;
49946;SDS011;35839;48.662;13.300;2023-05-14T09:58:00;3.60;;;3.13;;
49946;SDS011;35839;48.662;13.300;2023-05-14T10:00:25;6.85;;;4.10;;
49946;SDS011;35839;48.662;13.300;2023-05-14T10:02:51;4.43;;;3.80;;
49946;SDS011;35839;48.662;13.300;2023-05-14T10:05:18;5.72;;;4.90;;
49946;SDS011;35839;48.662;13.300;2023-05-14T10:07:45;6.05;;;4.70;;
49946;SDS011;35839;48.662;13.300;2023-05-14T10:10:13;6.85;;;6.18;;
49946;SDS011;35839;48.662;13.300;2023-05-14T10:12:40;6.90;;;5.57;;
49946;SDS011;35839;48.662;13.300;2023-05-14T10:15:15;6.82;;;6.13;;
49946;SDS011;35839;48.662;13.300;2023-05-14T10:17:45;7.63;;;6.85;;
49946;SDS011;35839;48.662;13.300;2023-05-14T10:20:14;6.97;;;6.28;;
49946;SDS011;35839;48.662;13.300;2023-05-14T10:22:41;8.57;;;6.80;;
49946;SDS011;35839;48.662;13.300;2023-05-14T10:25:06;7.28;;;6.35;;
49946;SDS011;35839;48.662;13.300;2023-05-14T10:27:32;7.65;;;6.90;;
49946;SDS011;35839;48.662;13.300;2023-05-14T10:29:58;7.25;;;6.55;;
49946;SDS011;35839;48.662;13.300;2023-05-14T10:32:24;7.28;;;5.85;;
49946;SDS011;35839;48.662;13.300;2023-05-14T10:34:51;8.57;;;6.68;;
49946;SDS011;35839;48.662;13.300;2023-05-14T10:37:19;9.60;;;6.97;;
49946;SDS011;35839;48.662;13.300;2023-05-14T10:39:46;7.73;;;6.93;;
49946;SDS011;35839;48.662;13.300;2023-05-14T10:42:12;8.18;;;7.38;;
49946;SDS011;35839;48.662;13.300;2023-05-14T10:45:04;7.28;;;6.43;;
49946;SDS011;35839;48.662;13.300;2023-05-14T10:47:32;8.23;;;6.78;;
49946;SDS011;35839;48.662;13.300;2023-05-14T10:50:01;9.85;;;6.93;;
49946;SDS011;35839;48.662;13.300;2023-05-14T10:52:28;8.70;;;5.93;;
49946;SDS011;35839;48.662;13.300;2023-05-14T10:54:55;6.32;;;5.43;;
49946;SDS011;35839;48.662;13.300;2023-05-14T10:57:23;7.22;;;6.53;;
49946;SDS011;35839;48.662;13.300;2023-05-14T10:59:54;7.15;;;6.45;;
49946;SDS011;35839;48.662;13.300;2023-05-14T11:05:02;10.07;;;6.28;;
49946;SDS011;35839;48.662;13.300;2023-05-14T11:07:36;7.55;;;6.15;;
49946;SDS011;35839;48.662;13.300;2023-05-14T11:10:04;7.43;;;5.95;;
49946;SDS011;35839;48.662;13.300;2023-05-14T11:12:33;9.27;;;6.82;;
49946;SDS011;35839;48.662;13.300;2023-05-14T11:15:01;10.20;;;7.10;;
49946;SDS011;35839;48.662;13.300;2023-05-14T11:17:29;9.07;;;6.90;;
49946;SDS011;35839;48.662;13.300;2023-05-14T11:19:55;7.63;;;6.35;;
49946;SDS011;35839;48.662;13.300;2023-05-14T11:22:22;8.85;;;6.50;;
49946;SDS011;35839;48.662;13.300;2023-05-14T11:24:47;10.63;;;7.05;;
49946;SDS011;35839;48.662;13.300;2023-05-14T11:27:13;8.73;;;6.68;;
49946;SDS011;35839;48.662;13.300;2023-05-14T11:29:41;8.13;;;7.05;;
49946;SDS011;35839;48.662;13.300;2023-05-14T11:32:09;8.65;;;6.90;;
49946;SDS011;35839;48.662;13.300;2023-05-14T11:34:34;8.43;;;6.88;;
49946;SDS011;35839;48.662;13.300;2023-05-14T11:37:01;7.15;;;6.45;;
49946;SDS011;35839;48.662;13.300;2023-05-14T11:39:28;6.55;;;5.93;;
49946;SDS011;35839;48.662;13.300;2023-05-14T11:41:56;6.30;;;4.28;;
49946;SDS011;35839;48.662;13.300;2023-05-14T11:44:22;13.95;;;4.85;;
49946;SDS011;35839;48.662;13.300;2023-05-14T15:34:37;0.70;;;0.70;;
49946;SDS011;35839;48.662;13.300;2023-05-14T15:37:02;0.80;;;0.80;;
49946;SDS011;35839;48.662;13.300;2023-05-14T15:39:28;0.60;;;0.60;;
49946;SDS011;35839;48.662;13.300;2023-05-14T15:41:55;0.70;;;0.70;;
49946;SDS011;35839;48.662;13.300;2023-05-14T15:44:20;0.90;;;0.90;;
49946;SDS011;35839;48.662;13.300;2023-05-14T15:46:46;3.00;;;1.20;;
49946;SDS011;35839;48.662;13.300;2023-05-14T15:49:11;0.88;;;0.80;;
49946;SDS011;35839;48.662;13.300;2023-05-14T15:51:36;2.30;;;0.70;;
49946;SDS011;35839;48.662;13.300;2023-05-14T15:54:02;0.93;;;0.82;;
49946;SDS011;35839;48.662;13.300;2023-05-14T15:56:27;1.60;;;0.68;;
49946;SDS011;35839;48.662;13.300;2023-05-14T15:58:53;1.00;;;0.70;;
49946;SDS011;35839;48.662;13.300;2023-05-14T16:01:18;2.20;;;1.27;;
49946;SDS011;35839;48.662;13.300;2023-05-14T16:03:43;3.17;;;1.10;;
49946;SDS011;35839;48.662;13.300;2023-05-14T16:06:09;1.17;;;0.95;;
49946;SDS011;35839;48.662;13.300;2023-05-14T16:08:35;3.65;;;1.30;;
49946;SDS011;35839;48.662;13.300;2023-05-14T16:11:01;2.08;;;1.77;;
49946;SDS011;35839;48.662;13.300;2023-05-14T16:13:26;2.42;;;1.20;;
49946;SDS011;35839;48.662;13.300;2023-05-14T16:15:52;1.98;;;1.50;;
49946;SDS011;35839;48.662;13.300;2023-05-14T16:18:17;2.17;;;1.10;;
49946;SDS011;35839;48.662;13.300;2023-05-14T16:20:42;0.85;;;0.82;;
49946;SDS011;35839;48.662;13.300;2023-05-14T16:23:08;1.52;;;1.13;;
49946;SDS011;35839;48.662;13.300;2023-05-14T16:25:33;1.02;;;0.90;;
49946;SDS011;35839;48.662;13.300;2023-05-14T16:28:00;1.45;;;0.90;;
49946;SDS011;35839;48.662;13.300;2023-05-14T16:30:25;2.00;;;0.95;;
49946;SDS011;35839;48.662;13.300;2023-05-14T16:32:51;0.57;;;0.57;;
49946;SDS011;35839;48.662;13.300;2023-05-14T16:35:17;0.90;;;0.80;;
49946;SDS011;35839;48.662;13.300;2023-05-14T16:37:43;1.38;;;1.00;;
49946;SDS011;35839;48.662;13.300;2023-05-14T16:40:09;1.45;;;1.08;;
49946;SDS011;35839;48.662;13.300;2023-05-14T16:42:35;1.45;;;1.05;;
49946;SDS011;35839;48.662;13.300;2023-05-14T16:45:02;1.00;;;0.90;;
49946;SDS011;35839;48.662;13.300;2023-05-14T16:47:27;1.10;;;0.85;;
49946;SDS011;35839;48.662;13.300;2023-05-14T16:49:53;0.98;;;0.98;;
49946;SDS011;35839;48.662;13.300;2023-05-14T16:52:18;1.00;;;1.00;;
49946;SDS011;35839;48.662;13.300;2023-05-14T16:54:44;0.90;;;0.70;;
49946;SDS011;35839;48.662;13.300;2023-05-14T16:57:09;1.00;;;0.80;;
49946;SDS011;35839;48.662;13.300;2023-05-14T16:59:36;1.08;;;0.88;;
49946;SDS011;35839;48.662;13.300;2023-05-14T17:02:01;0.70;;;0.65;;
49946;SDS011;35839;48.662;13.300;2023-05-14T17:04:27;1.15;;;0.70;;
49946;SDS011;35839;48.662;13.300;2023-05-14T17:06:52;0.70;;;0.70;;
49946;SDS011;35839;48.662;13.300;2023-05-14T17:09:18;1.05;;;0.95;;
49946;SDS011;35839;48.662;13.300;2023-05-14T17:11:43;5.20;;;1.13;;
49946;SDS011;35839;48.662;13.300;2023-05-14T17:14:08;1.90;;;0.98;;
49946;SDS011;35839;48.662;13.300;2023-05-14T17:16:34;0.82;;;0.82;;
49946;SDS011;35839;48.662;13.300;2023-05-14T17:18:59;1.35;;;0.85;;
49946;SDS011;35839;48.662;13.300;2023-05-14T17:21:25;0.80;;;0.80;;
49946;SDS011;35839;48.662;13.300;2023-05-14T17:23:50;2.83;;;0.70;;
49946;SDS011;35839;48.662;13.300;2023-05-14T17:26:16;2.20;;;0.80;;
49946;SDS011;35839;48.662;13.300;2023-05-14T17:28:41;2.35;;;0.75;;
49946;SDS011;35839;48.662;13.300;2023-05-14T17:31:07;2.60;;;2.13;;
49946;SDS011;35839;48.662;13.300;2023-05-14T17:33:32;5.65;;;1.60;;
49946;SDS011;35839;48.662;13.300;2023-05-14T17:35:57;2.15;;;1.58;;
49946;SDS011;35839;48.662;13.300;2023-05-14T17:38:23;2.38;;;1.60;;
49946;SDS011;35839;48.662;13.300;2023-05-14T17:40:48;6.00;;;2.10;;
49946;SDS011;35839;48.662;13.300;2023-05-14T17:43:14;2.95;;;1.83;;
49946;SDS011;35839;48.662;13.300;2023-05-14T17:45:39;2.42;;;2.00;;
49946;SDS011;35839;48.662;13.300;2023-05-14T17:48:05;2.67;;;1.63;;
49946;SDS011;35839;48.662;13.300;2023-05-14T17:50:30;2.22;;;1.60;;
49946;SDS011;35839;48.662;13.300;2023-05-14T17:52:56;2.05;;;1.30;;
49946;SDS011;35839;48.662;13.300;2023-05-14T17:55:21;2.10;;;1.27;;
49946;SDS011;35839;48.662;13.300;2023-05-14T17:57:47;1.40;;;1.30;;
49946;SDS011;35839;48.662;13.300;2023-05-14T18:00:12;0.95;;;0.88;;
49946;SDS011;35839;48.662;13.300;2023-05-14T18:02:38;3.05;;;1.00;;
49946;SDS011;35839;48.662;13.300;2023-05-14T18:05:05;1.95;;;1.35;;
49946;SDS011;35839;48.662;13.300;2023-05-14T18:07:31;1.80;;;1.30;;
49946;SDS011;35839;48.662;13.300;2023-05-14T18:09:56;1.80;;;1.25;;
49946;SDS011;35839;48.662;13.300;2023-05-14T18:12:22;2.83;;;1.30;;
49946;SDS011;35839;48.662;13.300;2023-05-14T18:14:49;0.95;;;0.95;;
49946;SDS011;35839;48.662;13.300;2023-05-14T18:17:15;1.45;;;1.30;;
49946;SDS011;35839;48.662;13.300;2023-05-14T18:19:41;4.65;;;1.55;;
49946;SDS011;35839;48.662;13.300;2023-05-14T18:22:06;4.43;;;1.42;;
49946;SDS011;35839;48.662;13.300;2023-05-14T18:24:32;2.63;;;1.35;;
49946;SDS011;35839;48.662;13.300;2023-05-14T18:26:58;3.78;;;1.45;;
49946;SDS011;35839;48.662;13.300;2023-05-14T18:29:23;2.28;;;1.52;;
49946;SDS011;35839;48.662;13.300;2023-05-14T18:31:50;2.03;;;1.15;;
49946;SDS011;35839;48.662;13.300;2023-05-14T18:34:15;7.30;;;1.30;;
49946;SDS011;35839;48.662;13.300;2023-05-14T18:36:41;1.10;;;1.08;;
49946;SDS011;35839;48.662;13.300;2023-05-14T18:39:06;1.58;;;1.38;;
49946;SDS011;35839;48.662;13.300;2023-05-14T18:41:32;1.42;;;1.23;;
49946;SDS011;35839;48.662;13.300;2023-05-14T18:43:57;1.60;;;1.50;;
49946;SDS011;35839;48.662;13.300;2023-05-14T18:46:23;1.15;;;1.00;;
49946;SDS011;35839;48.662;13.300;2023-05-14T18:48:48;1.10;;;0.90;;
49946;SDS011;35839;48.662;13.300;2023-05-14T18:51:14;1.23;;;0.88;;
49946;SDS011;35839;48.662;13.300;2023-05-14T18:53:40;1.70;;;1.13;;
49946;SDS011;35839;48.662;13.300;2023-05-14T18:56:05;1.73;;;1.40;;
49946;SDS011;35839;48.662;13.300;2023-05-14T18:58:30;3.30;;;1.73;;
49946;SDS011;35839;48.662;13.300;2023-05-14T19:00:56;1.58;;;1.42;;
49946;SDS011;35839;48.662;13.300;2023-05-14T19:03:23;2.55;;;1.52;;
49946;SDS011;35839;48.662;13.300;2023-05-14T19:05:48;2.13;;;1.38;;
49946;SDS011;35839;48.662;13.300;2023-05-14T19:08:16;3.30;;;1.90;;
49946;SDS011;35839;48.662;13.300;2023-05-14T19:10:41;2.05;;;1.83;;
49946;SDS011;35839;48.662;13.300;2023-05-14T19:13:07;2.42;;;1.88;;
49946;SDS011;35839;48.662;13.300;2023-05-14T19:15:32;2.58;;;1.98;;
49946;SDS011;35839;48.662;13.300;2023-05-14T19:17:59;2.90;;;1.92;;
49946;SDS011;35839;48.662;13.300;2023-05-14T19:20:26;2.95;;;2.03;;
49946;SDS011;35839;48.662;13.300;2023-05-14T19:22:52;2.72;;;1.90;;
49946;SDS011;35839;48.662;13.300;2023-05-14T19:25:17;2.55;;;1.60;;
49946;SDS011;35839;48.662;13.300;2023-05-14T19:27:43;2.95;;;1.77;;
49946;SDS011;35839;48.662;13.300;2023-05-14T19:30:15;3.70;;;1.60;;
49946;SDS011;35839;48.662;13.300;2023-05-14T19:32:40;3.03;;;1.67;;
49946;SDS011;35839;48.662;13.300;2023-05-14T19:35:06;1.95;;;1.75;;
49946;SDS011;35839;48.662;13.300;2023-05-14T19:37:32;1.63;;;1.42;;
49946;SDS011;35839;48.662;13.300;2023-05-14T19:39:57;1.60;;;1.50;;
49946;SDS011;35839;48.662;13.300;2023-05-14T19:42:22;1.50;;;1.40;;
49946;SDS011;35839;48.662;13.300;2023-05-14T19:44:49;2.10;;;1.58;;
49946;SDS011;35839;48.662;13.300;2023-05-14T19:47:14;2.17;;;1.50;;
49946;SDS011;35839;48.662;13.300;2023-05-14T19:49:40;2.40;;;1.58;;
49946;SDS011;35839;48.662;13.300;2023-05-14T19:52:05;1.92;;;1.50;;
49946;SDS011;35839;48.662;13.300;2023-05-14T19:54:30;2.20;;;1.25;;
49946;SDS011;35839;48.662;13.300;2023-05-14T19:56:56;1.55;;;1.35;;
49946;SDS011;35839;48.662;13.300;2023-05-14T19:59:21;2.30;;;1.60;;
49946;SDS011;35839;48.662;13.300;2023-05-14T20:01:47;1.38;;;1.20;;
49946;SDS011;35839;48.662;13.300;2023-05-14T20:04:12;1.50;;;1.40;;
49946;SDS011;35839;48.662;13.300;2023-05-14T20:06:40;1.60;;;1.50;;
49946;SDS011;35839;48.662;13.300;2023-05-14T20:09:05;3.63;;;1.55;;
49946;SDS011;35839;48.662;13.300;2023-05-14T20:11:31;3.38;;;1.60;;
49946;SDS011;35839;48.662;13.300;2023-05-14T20:13:56;1.60;;;1.50;;
49946;SDS011;35839;48.662;13.300;2023-05-14T20:16:21;1.92;;;1.60;;
49946;SDS011;35839;48.662;13.300;2023-05-14T20:18:47;2.03;;;1.40;;
49946;SDS011;35839;48.662;13.300;2023-05-14T20:21:13;2.75;;;1.50;;
49946;SDS011;35839;48.662;13.300;2023-05-14T20:23:40;2.17;;;1.60;;
49946;SDS011;35839;48.662;13.300;2023-05-14T20:26:05;2.00;;;1.77;;
49946;SDS011;35839;48.662;13.300;2023-05-14T20:28:30;2.13;;;1.92;;
49946;SDS011;35839;48.662;13.300;2023-05-14T20:30:56;1.70;;;1.30;;
49946;SDS011;35839;48.662;13.300;2023-05-14T20:33:23;2.65;;;1.70;;
49946;SDS011;35839;48.662;13.300;2023-05-14T20:35:48;2.17;;;1.83;;
49946;SDS011;35839;48.662;13.300;2023-05-14T20:38:15;7.25;;;1.80;;
49946;SDS011;35839;48.662;13.300;2023-05-14T20:40:42;3.60;;;1.60;;
49946;SDS011;35839;48.662;13.300;2023-05-14T20:43:08;2.30;;;1.65;;
49946;SDS011;35839;48.662;13.300;2023-05-14T20:45:34;1.73;;;1.45;;
49946;SDS011;35839;48.662;13.300;2023-05-14T20:48:00;3.30;;;1.90;;
49946;SDS011;35839;48.662;13.300;2023-05-14T20:50:25;2.70;;;1.50;;
49946;SDS011;35839;48.662;13.300;2023-05-14T20:52:51;1.92;;;1.73;;
49946;SDS011;35839;48.662;13.300;2023-05-14T20:55:17;2.88;;;1.70;;
49946;SDS011;35839;48.662;13.300;2023-05-14T20:57:43;2.72;;;1.58;;
